createdAt,value
2019-04-29T00:01:36.898Z,101830.23
2019-04-29T00:04:06.650Z,101828.08
2019-04-29T00:06:36.304Z,101829.55
2019-04-29T00:09:10.448Z,101831.05
2019-04-29T00:11:40.614Z,101832.54
2019-04-29T00:14:10.620Z,101835.72
2019-04-29T00:16:45.999Z,101836.77
2019-04-29T00:19:30.364Z,101839.80
2019-04-29T00:22:00.682Z,101835.52
2019-04-29T00:24:31.408Z,101833.42
2019-04-29T00:27:01.148Z,101833.86
2019-04-29T00:29:30.891Z,101835.66
2019-04-29T00:32:00.799Z,101836.20
2019-04-29T00:34:30.459Z,101839.69
2019-04-29T00:37:31.638Z,101843.73
2019-04-29T00:40:34.719Z,101847.33
2019-04-29T00:43:28.000Z,101846.55
2019-04-29T00:45:58.013Z,101848.26
2019-04-29T00:48:28.011Z,101849.50
2019-04-29T00:50:57.682Z,101852.52
2019-04-29T00:53:27.860Z,101850.74
2019-04-29T00:55:59.506Z,101856.35
2019-04-29T00:58:29.449Z,101856.30
2019-04-29T01:00:59.287Z,101852.41
2019-04-29T01:03:29.052Z,101848.15
2019-04-29T01:05:58.794Z,101849.11
2019-04-29T01:08:28.615Z,101853.89
2019-04-29T01:10:58.550Z,101847.51
2019-04-29T01:13:28.295Z,101851.84
2019-04-29T01:15:58.198Z,101853.63
2019-04-29T01:18:27.936Z,101849.87
2019-04-29T01:20:57.990Z,101855.19
2019-04-29T01:23:27.662Z,101855.34
2019-04-29T01:26:00.684Z,101855.05
2019-04-29T01:28:49.593Z,101856.84
2019-04-29T01:31:24.335Z,101854.30
2019-04-29T01:33:57.990Z,101853.11
2019-04-29T01:36:33.012Z,101854.53
2019-04-29T01:39:04.564Z,101856.86
2019-04-29T01:41:42.438Z,101852.59
2019-04-29T01:44:12.122Z,101859.47
2019-04-29T01:46:41.819Z,101855.68
2019-04-29T01:49:11.500Z,101861.84
2019-04-29T01:51:41.480Z,101858.02
2019-04-29T01:54:11.137Z,101855.91
2019-04-29T01:56:41.399Z,101864.99
2019-04-29T01:59:12.099Z,101868.56
2019-04-29T02:01:41.922Z,101862.55
2019-04-29T02:04:11.646Z,101868.61
2019-04-29T02:06:41.315Z,101863.16
2019-04-29T02:09:15.636Z,101863.16
2019-04-29T02:11:45.375Z,101870.81
2019-04-29T02:14:15.046Z,101874.34
2019-04-29T02:16:44.708Z,101874.40
2019-04-29T02:19:14.381Z,101877.48
2019-04-29T02:22:03.085Z,101879.25
2019-04-29T02:24:33.136Z,101879.25
2019-04-29T02:27:05.609Z,101879.25
2019-04-29T02:29:34.214Z,101877.04
2019-04-29T02:32:04.869Z,101871.42
2019-04-29T02:34:34.545Z,101872.72
2019-04-29T02:37:06.856Z,101872.72
2019-04-29T02:39:48.171Z,101875.36
2019-04-29T02:42:43.130Z,101875.70
2019-04-29T02:45:21.023Z,101877.48
2019-04-29T02:47:53.538Z,101881.86
2019-04-29T02:50:23.526Z,101881.03
2019-04-29T02:52:53.303Z,101875.47
2019-04-29T02:55:28.761Z,101875.20
2019-04-29T02:58:06.275Z,101877.80
2019-04-29T03:01:01.190Z,101874.41
2019-04-29T03:03:39.086Z,101877.48
2019-04-29T03:06:08.904Z,101876.23
2019-04-29T03:08:38.825Z,101879.84
2019-04-29T03:11:08.571Z,101874.82
2019-04-29T03:13:38.816Z,101877.56
2019-04-29T03:16:08.820Z,101875.04
2019-04-29T03:18:42.490Z,101868.23
2019-04-29T03:21:18.433Z,101862.73
2019-04-29T03:23:48.109Z,101861.14
2019-04-29T03:26:17.830Z,101876.73
2019-04-29T03:28:47.493Z,101871.65
2019-04-29T03:31:17.180Z,101877.27
2019-04-29T03:33:46.993Z,101876.45
2019-04-29T03:36:16.799Z,101874.45
2019-04-29T03:38:46.454Z,101882.65
2019-04-29T03:41:16.099Z,101883.55
2019-04-29T03:43:45.770Z,101885.72
2019-04-29T03:46:15.436Z,101887.02
2019-04-29T03:48:45.108Z,101890.94
2019-04-29T03:51:14.785Z,101891.36
2019-04-29T03:53:44.447Z,101893.95
2019-04-29T03:56:14.351Z,101882.69
2019-04-29T03:58:44.041Z,101887.02
2019-04-29T04:01:22.403Z,101891.75
2019-04-29T04:03:56.791Z,101894.00
2019-04-29T04:06:36.038Z,101895.87
2019-04-29T04:09:15.450Z,101894.20
2019-04-29T04:11:45.122Z,101898.17
2019-04-29T04:14:15.042Z,101906.84
2019-04-29T04:17:20.263Z,101902.14
2019-04-29T04:19:48.300Z,101906.89
2019-04-29T04:22:18.057Z,101910.00
2019-04-29T04:24:47.804Z,101913.11
2019-04-29T04:27:17.480Z,101915.36
2019-04-29T04:29:48.145Z,101913.16
2019-04-29T04:32:17.843Z,101916.99
2019-04-29T04:34:47.505Z,101917.34
2019-04-29T04:37:17.192Z,101913.45
2019-04-29T04:39:46.862Z,101912.07
2019-04-29T04:42:16.888Z,101914.61
2019-04-29T04:44:49.886Z,101916.77
2019-04-29T04:47:20.075Z,101918.48
2019-04-29T04:49:49.518Z,101921.55
2019-04-29T04:52:18.471Z,101920.65
2019-04-29T04:54:48.270Z,101918.02
2019-04-29T04:57:17.153Z,101927.06
2019-04-29T04:59:47.136Z,101923.53
2019-04-29T05:02:16.819Z,101926.11
2019-04-29T05:04:46.585Z,101931.63
2019-04-29T05:07:17.237Z,101935.80
2019-04-29T05:09:47.954Z,101936.14
2019-04-29T05:12:17.868Z,101934.41
2019-04-29T05:14:47.529Z,101941.27
2019-04-29T05:17:17.208Z,101933.88
2019-04-29T05:19:46.893Z,101943.72
2019-04-29T05:22:16.586Z,101939.35
2019-04-29T05:24:46.273Z,101943.18
2019-04-29T05:27:16.208Z,101945.64
2019-04-29T05:29:46.113Z,101942.94
2019-04-29T05:32:15.798Z,101942.86
2019-04-29T05:34:48.008Z,101948.36
2019-04-29T05:37:56.523Z,101951.71
2019-04-29T05:40:40.792Z,101945.95
2019-04-29T05:43:11.060Z,101957.94
2019-04-29T05:45:47.882Z,101959.09
2019-04-29T05:48:16.439Z,101959.41
2019-04-29T05:50:57.835Z,101961.95
2019-04-29T05:53:33.460Z,101968.66
2019-04-29T05:56:03.137Z,101966.72
2019-04-29T05:58:37.620Z,101974.72
2019-04-29T06:01:11.008Z,101967.16
2019-04-29T06:03:44.045Z,101971.27
2019-04-29T06:06:12.544Z,101973.19
2019-04-29T06:08:42.155Z,101972.44
2019-04-29T06:11:12.089Z,101978.04
2019-04-29T06:13:41.763Z,101970.96
2019-04-29T06:16:15.968Z,101979.58
2019-04-29T06:18:43.153Z,101978.25
2019-04-29T06:21:12.909Z,101980.08
2019-04-29T06:23:42.581Z,101976.73
2019-04-29T06:26:12.757Z,101978.15
2019-04-29T06:28:43.425Z,101980.91
2019-04-29T06:31:15.426Z,101981.70
2019-04-29T06:33:45.138Z,101981.25
2019-04-29T06:36:14.946Z,101980.19
2019-04-29T06:38:44.908Z,101981.23
2019-04-29T06:41:14.603Z,101981.12
2019-04-29T06:43:44.305Z,101978.77
2019-04-29T06:46:14.354Z,101978.86
2019-04-29T06:48:44.126Z,101987.22
2019-04-29T06:51:14.162Z,101985.95
2019-04-29T06:53:43.858Z,101995.44
2019-04-29T06:56:13.535Z,101992.12
2019-04-29T06:58:43.378Z,101993.61
2019-04-29T07:01:13.072Z,101998.49
2019-04-29T07:03:42.967Z,102000.81
2019-04-29T07:06:13.628Z,102005.52
2019-04-29T07:08:43.347Z,102003.69
2019-04-29T07:11:13.110Z,102008.39
2019-04-29T07:13:42.843Z,102005.42
2019-04-29T07:16:12.987Z,102004.77
2019-04-29T07:18:48.338Z,102005.31
2019-04-29T07:21:14.477Z,102014.92
2019-04-29T07:23:44.147Z,102014.38
2019-04-29T07:26:13.852Z,102018.16
2019-04-29T07:28:43.548Z,102017.09
2019-04-29T07:31:13.237Z,102019.44
2019-04-29T07:33:42.969Z,102018.48
2019-04-29T07:36:12.669Z,102016.01
2019-04-29T07:38:46.487Z,102013.40
2019-04-29T07:41:18.460Z,102010.78
2019-04-29T07:43:45.406Z,102011.01
2019-04-29T07:46:36.463Z,102009.14
2019-04-29T07:49:05.885Z,102008.41
2019-04-29T07:51:39.438Z,102010.75
2019-04-29T07:54:11.065Z,102011.86
2019-04-29T07:56:42.350Z,102012.02
2019-04-29T07:59:11.343Z,102016.06
2019-04-29T08:01:41.253Z,102019.28
2019-04-29T08:04:09.712Z,102018.09
2019-04-29T08:06:42.654Z,102019.05
2019-04-29T08:09:09.732Z,102020.91
2019-04-29T08:11:38.210Z,102022.44
2019-04-29T08:14:06.600Z,102023.30
2019-04-29T08:16:34.902Z,102023.94
2019-04-29T08:19:05.044Z,102029.89
2019-04-29T08:21:33.494Z,102029.87
2019-04-29T08:24:01.795Z,102025.83
2019-04-29T08:26:33.588Z,102034.75
2019-04-29T08:29:00.826Z,102033.99
2019-04-29T08:31:29.890Z,102035.33
2019-04-29T08:33:58.213Z,102030.63
2019-04-29T08:36:26.926Z,102034.46
2019-04-29T08:39:08.015Z,102026.34
2019-04-29T08:41:28.797Z,102027.63
2019-04-29T08:44:16.198Z,102020.17
2019-04-29T08:46:51.818Z,102027.39
2019-04-29T08:49:17.218Z,102035.52
2019-04-29T08:51:45.658Z,102023.27
2019-04-29T08:54:16.018Z,102027.38
2019-04-29T08:57:01.656Z,102022.06
2019-04-29T08:59:20.672Z,102025.73
2019-04-29T09:01:48.858Z,102025.27
2019-04-29T09:04:18.551Z,102026.59
2019-04-29T09:06:48.229Z,102018.74
2019-04-29T09:09:28.452Z,102016.48
2019-04-29T09:11:49.618Z,102023.92
2019-04-29T09:14:19.465Z,102022.80
2019-04-29T09:16:49.161Z,102025.38
2019-04-29T09:19:18.868Z,102025.11
2019-04-29T09:21:51.512Z,102031.53
2019-04-29T09:24:22.571Z,102031.69
2019-04-29T09:26:58.233Z,102022.06
2019-04-29T09:29:32.257Z,102020.45
2019-04-29T09:32:02.213Z,102014.91
2019-04-29T09:34:31.980Z,102019.90
2019-04-29T09:37:01.997Z,102018.50
2019-04-29T09:39:43.157Z,102022.98
2019-04-29T09:42:30.743Z,102021.22
2019-04-29T09:45:05.465Z,102023.23
2019-04-29T09:47:35.426Z,102026.41
2019-04-29T09:50:06.739Z,102031.49
2019-04-29T09:52:36.857Z,102026.42
2019-04-29T09:55:07.216Z,102028.76
2019-04-29T09:57:36.906Z,102027.33
2019-04-29T10:00:14.055Z,102029.80
2019-04-29T10:02:52.065Z,102025.84
2019-04-29T10:05:40.300Z,102013.19
2019-04-29T10:08:09.567Z,102014.72
2019-04-29T10:10:38.019Z,102018.34
2019-04-29T10:13:06.324Z,102018.68
2019-04-29T10:15:55.934Z,102017.52
2019-04-29T10:18:50.740Z,102012.05
2019-04-29T10:21:21.405Z,102004.02
2019-04-29T10:23:49.221Z,102007.45
2019-04-29T10:26:17.806Z,102000.80
2019-04-29T10:28:59.733Z,101998.27
2019-04-29T10:31:28.183Z,101997.83
2019-04-29T10:33:56.641Z,101997.73
2019-04-29T10:36:26.338Z,101993.16
2019-04-29T10:38:56.551Z,101985.51
2019-04-29T10:41:30.495Z,101987.80
2019-04-29T10:44:25.878Z,101987.78
2019-04-29T10:47:07.386Z,101986.90
2019-04-29T10:49:55.327Z,101984.36
2019-04-29T10:52:23.730Z,101983.36
2019-04-29T10:54:55.352Z,101973.75
2019-04-29T10:57:25.555Z,101984.41
2019-04-29T11:00:01.376Z,101984.03
2019-04-29T11:02:40.196Z,101974.32
2019-04-29T11:05:34.889Z,101974.47
2019-04-29T11:08:15.321Z,101970.53
2019-04-29T11:10:45.359Z,101969.02
2019-04-29T11:13:15.372Z,101963.05
2019-04-29T11:15:49.436Z,101970.25
2019-04-29T11:18:22.575Z,101966.25
2019-04-29T11:20:48.912Z,101967.55
2019-04-29T11:23:27.278Z,101961.54
2019-04-29T11:26:15.281Z,101960.14
2019-04-29T11:28:46.940Z,101958.90
2019-04-29T11:31:19.314Z,101958.69
2019-04-29T11:33:59.661Z,101959.55
2019-04-29T11:36:29.429Z,101945.89
2019-04-29T11:38:59.114Z,101955.13
2019-04-29T11:41:31.645Z,101949.33
2019-04-29T11:44:01.344Z,101955.37
2019-04-29T11:46:31.169Z,101957.99
2019-04-29T11:49:02.577Z,101939.94
2019-04-29T11:52:07.942Z,101945.28
2019-04-29T11:54:18.073Z,101940.88
2019-04-29T11:56:46.699Z,101940.59
2019-04-29T11:59:34.294Z,101938.97
2019-04-29T12:02:37.690Z,101934.55
2019-04-29T12:05:04.118Z,101939.69
2019-04-29T12:07:34.111Z,101935.45
2019-04-29T12:10:06.472Z,101935.84
2019-04-29T12:12:35.932Z,101934.63
2019-04-29T12:15:34.722Z,101939.03
2019-04-29T12:18:12.236Z,101927.09
2019-04-29T12:21:13.279Z,101924.17
2019-04-29T12:23:43.343Z,101931.28
2019-04-29T12:26:13.377Z,101926.80
2019-04-29T12:28:44.499Z,101929.45
2019-04-29T12:31:29.998Z,101924.27
2019-04-29T12:34:09.073Z,101927.50
2019-04-29T12:36:55.023Z,101917.92
2019-04-29T12:39:42.865Z,101922.16
2019-04-29T12:42:28.471Z,101911.31
2019-04-29T12:45:01.353Z,101911.59
2019-04-29T12:47:33.104Z,101910.00
2019-04-29T12:50:02.802Z,101911.54
2019-04-29T12:52:32.518Z,101915.56
2019-04-29T12:55:19.813Z,101910.92
2019-04-29T12:57:35.988Z,101909.80
2019-04-29T13:00:09.166Z,101911.30
2019-04-29T13:03:01.437Z,101905.67
2019-04-29T13:05:57.910Z,101892.55
2019-04-29T13:08:28.518Z,101892.55
2019-04-29T13:11:00.805Z,101897.23
2019-04-29T13:13:30.629Z,101894.83
2019-04-29T13:16:20.831Z,101891.39
2019-04-29T13:19:10.646Z,101885.80
2019-04-29T13:21:30.787Z,101888.00
2019-04-29T13:24:13.577Z,101888.59
2019-04-29T13:26:33.357Z,101880.38
2019-04-29T13:29:03.576Z,101873.53
2019-04-29T13:31:38.374Z,101866.48
2019-04-29T13:34:22.963Z,101862.92
2019-04-29T13:36:39.045Z,101863.20
2019-04-29T13:39:09.696Z,101867.11
2019-04-29T13:41:56.167Z,101866.08
2019-04-29T13:44:11.597Z,101866.18
2019-04-29T13:47:03.247Z,101862.91
2019-04-29T13:49:50.596Z,101860.82
2019-04-29T13:52:20.749Z,101856.60
2019-04-29T17:10:10.605Z,101847.05
2019-04-29T17:12:47.963Z,101846.29
2019-04-29T17:15:26.083Z,101850.31
2019-04-29T17:17:55.582Z,101842.52
2019-04-29T17:20:25.273Z,101844.10
2019-04-29T17:22:54.955Z,101847.48
2019-04-29T17:25:25.108Z,101857.27
2019-04-29T17:28:12.317Z,101861.54
2019-04-29T17:31:12.452Z,101857.70
2019-04-29T17:33:50.191Z,101859.75
2019-04-29T17:36:23.803Z,101859.66
2019-04-29T17:38:51.679Z,101859.45
2019-04-29T17:41:21.380Z,101864.31
2019-04-29T17:44:02.334Z,101865.83
2019-04-29T17:46:50.693Z,101858.73
2019-04-29T17:49:30.759Z,101862.02
2019-04-29T17:52:02.793Z,101868.55
2019-04-29T17:54:37.026Z,101866.88
2019-04-29T17:57:31.467Z,101869.20
2019-04-29T18:00:15.873Z,101859.91
2019-04-29T18:03:05.284Z,101863.67
2019-04-29T18:05:55.025Z,101866.29
2019-04-29T18:08:27.339Z,101868.45
2019-04-29T18:10:59.844Z,101865.61
2019-04-29T18:13:30.546Z,101863.98
2019-04-29T18:16:03.968Z,101864.67
2019-04-29T18:18:46.568Z,101859.84
2019-04-29T18:21:43.389Z,101863.40
2019-04-29T18:24:25.349Z,101863.08
2019-04-29T18:27:00.294Z,101862.69
2019-04-29T18:29:28.600Z,101864.16
2019-04-29T18:32:00.487Z,101863.40
2019-04-29T18:34:29.273Z,101869.08
2019-04-29T18:37:00.366Z,101870.53
2019-04-29T18:39:31.650Z,101865.16
2019-04-29T18:42:03.208Z,101867.60
2019-04-29T18:44:33.024Z,101868.09
2019-04-29T18:47:02.703Z,101869.45
2019-04-29T18:49:32.386Z,101873.01
2019-04-29T18:52:03.828Z,101875.53
2019-04-29T18:54:33.489Z,101873.14
2019-04-29T18:57:03.183Z,101874.77
2019-04-29T18:59:36.688Z,101879.09
2019-04-29T19:02:09.355Z,101877.47
2019-04-29T19:04:48.496Z,101881.70
2019-04-29T19:07:17.522Z,101881.17
2019-04-29T19:09:47.292Z,101876.84
2019-04-29T19:12:17.054Z,101885.69
2019-04-29T19:14:47.868Z,101888.98
2019-04-29T19:17:17.632Z,101887.53
2019-04-29T19:19:47.313Z,101885.91
2019-04-29T19:22:16.990Z,101891.60
2019-04-29T19:24:48.196Z,101889.30
2019-04-29T19:27:17.983Z,101891.69
2019-04-29T19:29:47.733Z,101892.83
2019-04-29T19:32:18.775Z,101888.90
2019-04-29T19:34:50.199Z,101894.39
2019-04-29T19:37:18.842Z,101892.31
2019-04-29T19:39:47.143Z,101892.62
2019-04-29T19:42:28.316Z,101897.41
2019-04-29T19:44:45.930Z,101896.23
2019-04-29T19:47:16.687Z,101900.39
2019-04-29T19:49:46.544Z,101908.47
2019-04-29T19:52:27.956Z,101903.09
2019-04-29T19:54:48.690Z,101906.63
2019-04-29T19:57:18.452Z,101902.94
2019-04-29T19:59:51.995Z,101906.78
2019-04-29T20:02:20.118Z,101903.03
2019-04-29T20:04:58.936Z,101907.00
2019-04-29T20:07:27.567Z,101908.80
2019-04-29T20:10:04.046Z,101907.86
2019-04-29T20:12:29.593Z,101912.17
2019-04-29T20:15:01.980Z,101910.41
2019-04-29T20:17:53.142Z,101911.63
2019-04-29T20:20:35.042Z,101911.77
2019-04-29T20:23:03.112Z,101906.94
2019-04-29T20:25:38.066Z,101911.72
2019-04-29T20:28:08.636Z,101911.95
2019-04-29T20:30:37.042Z,101909.56
2019-04-29T20:33:09.596Z,101908.94
2019-04-29T20:35:40.454Z,101914.25
2019-04-29T20:38:09.687Z,101911.63
2019-04-29T20:40:43.062Z,101910.95
2019-04-29T20:43:11.449Z,101911.94
2019-04-29T20:45:41.219Z,101910.39
2019-04-29T20:48:15.327Z,101911.92
2019-04-29T20:50:46.106Z,101915.09
2019-04-29T20:53:19.202Z,101918.07
2019-04-29T20:55:49.159Z,101911.77
2019-04-29T20:58:23.398Z,101914.09
2019-04-29T21:00:50.372Z,101919.78
2019-04-29T21:03:27.693Z,101910.95
2019-04-29T21:05:54.914Z,101908.33
2019-04-29T21:08:23.322Z,101906.61
2019-04-29T21:10:55.445Z,101906.84
2019-04-29T21:13:33.581Z,101904.39
2019-04-29T21:16:11.588Z,101906.47
2019-04-29T21:18:45.480Z,101894.70
2019-04-29T21:21:12.837Z,101900.08
2019-04-29T21:23:42.636Z,101902.33
2019-04-29T21:26:12.394Z,101894.40
2019-04-29T21:28:44.637Z,101896.84
2019-04-29T21:31:18.525Z,101895.54
2019-04-29T21:33:45.628Z,101900.53
2019-04-29T21:36:26.484Z,101898.46
2019-04-29T21:39:02.337Z,101901.80
2019-04-29T21:41:42.326Z,101900.94
2019-04-29T21:44:12.112Z,101902.56
2019-04-29T21:46:40.358Z,101903.09
2019-04-29T21:49:11.687Z,101903.47
2019-04-29T21:51:41.773Z,101898.64
2019-04-29T21:54:09.717Z,101900.08
2019-04-29T21:56:39.740Z,101899.55
2019-04-29T21:59:12.271Z,101899.33
2019-04-29T22:01:41.561Z,101894.63
2019-04-29T22:04:11.270Z,101898.32
2019-04-29T22:06:41.039Z,101895.48
2019-04-29T22:09:12.432Z,101898.00
2019-04-29T22:11:44.590Z,101895.25
2019-04-29T22:14:15.547Z,101898.16
2019-04-29T22:16:47.571Z,101897.25
2019-04-29T22:19:17.586Z,101893.72
2019-04-29T22:21:47.550Z,101893.48
2019-04-29T22:24:17.389Z,101896.87
2019-04-29T22:26:47.159Z,101896.02
2019-04-29T22:29:16.859Z,101894.16
2019-04-29T22:31:46.691Z,101893.85
2019-04-29T22:34:19.028Z,101891.41
2019-04-29T22:36:52.661Z,101889.23
2019-04-29T22:39:21.714Z,101886.39
2019-04-29T22:42:01.587Z,101891.63
2019-04-29T22:44:31.606Z,101892.93
2019-04-29T22:47:01.301Z,101893.30
2019-04-29T22:49:32.062Z,101891.60
2019-04-29T22:52:01.760Z,101893.61
2019-04-29T22:54:31.444Z,101900.57
2019-04-29T22:57:01.239Z,101891.33
2019-04-29T22:59:30.911Z,101895.61
2019-04-29T23:02:01.016Z,101895.85
2019-04-29T23:04:30.707Z,101894.95
2019-04-29T23:07:00.471Z,101898.17
2019-04-29T23:09:30.674Z,101900.12
2019-04-29T23:12:00.362Z,101899.72
2019-04-29T23:14:30.133Z,101901.02
2019-04-29T23:16:59.830Z,101898.49
2019-04-29T23:19:29.578Z,101901.80
2019-04-29T23:22:07.512Z,101896.67
2019-04-29T23:24:55.838Z,101899.13
2019-04-29T23:27:25.933Z,101897.81
2019-04-29T23:29:55.877Z,101895.73
2019-04-29T23:32:25.565Z,101893.42
2019-04-29T23:34:57.235Z,101898.52
2019-04-29T23:37:29.458Z,101889.73
2019-04-29T23:39:59.174Z,101891.45
2019-04-29T23:42:28.852Z,101890.91
2019-04-29T23:44:58.551Z,101886.52
2019-04-29T23:47:28.318Z,101888.73
2019-04-29T23:49:58.011Z,101888.20
2019-04-29T23:52:27.695Z,101884.20
2019-04-29T23:54:56.301Z,101888.55
2019-04-29T23:57:46.133Z,101891.33
